CheckWX is a tool to help pilots better visualize weather data.  It is not intended as a substitute for an official pre-flight weather briefing.

00:18:14 UTC

HELX METAR
Luxor International Airport
Luxor, Egypt
Current

18 mins ago

HELX 230000Z 00000KT CAVOK 24/13 Q1009 NOSIG
Observed
Oct-23 @ 00:00 UTC
Visibility
10,000+ meters
Flight Rules
VFR
Cloud Levels
  • Clear skies
Temperature
24°C / 75°F
Dewpoint
13°C / 55°F
Humidity
50%
Altimeter
29.79" Hg
Pressure
1008.92 hPa
Previous

1 hour ago

HELX 222300Z 00000KT CAVOK 25/13 Q1009 NOSIG
Observed
Oct-22 @ 23:00 UTC
Visibility
10,000+ meters
Flight Rules
VFR
Cloud Levels
  • Clear skies
Temperature
25°C / 77°F
Dewpoint
13°C / 55°F
Humidity
47%
Altimeter
29.79" Hg
Pressure
1008.92 hPa
Previous

2 hours ago

HELX 222200Z 15002KT CAVOK 26/13 Q1009 NOSIG
Observed
Oct-22 @ 22:00 UTC
Wind
  • 150° at 2 KTS
Visibility
10,000+ meters
Flight Rules
VFR
Cloud Levels
  • Clear skies
Temperature
26°C / 79°F
Dewpoint
13°C / 55°F
Humidity
45%
Altimeter
29.79" Hg
Pressure
1008.92 hPa